Airfield :
LOGIN :

Register | Disclaimer

   EN    FR    IT 

 










Legend :    VFR   Marginal VFR   IFR   Intensive IFR   Very Intensive IFR
Visi :
Ceiling :
>= 8 km
>= 3000ft
5 to 8 km
1000 to 3000 ft
1500m to 5 km
500 to 1000 ft
800 to 1500m
200 to 500 ft
< 800m
< 200 ft
Symbols :   Thunderstorms  Fog  Heavy snow  Heavy precipitations  Wind > 20 kt
SIGMETs :     Misc.  Thunderstorms  Icing  Turbulence  Mountain Waves  Volcanic Ashes







- Airport Elevation : 289 ft


LIRG - Guidonia

CURRENT METAR :
  • 111755Z 03004KT CAVOK 04/01 Q1018 RMK SKC MON NE LIB NC VIS MIN 9999 BLU

EXPIRED METARs :
  • 111655Z 02008KT CAVOK 07/00 Q1018 RMK SKC MON NE LIB NC VIS MIN 9999 BLU
  • 111555Z 27004KT CAVOK 10/M00 Q1017 RMK SKC MON NE LIB NC VIS MIN 9999 BLU

TAF TAF LIRG
Valid from the 11 at 15:00 until the 12 at 00:00 UTC


111400Z 1115/1124 03005KT CAVOK
No reported NOTAMs for that airfield.
2 SIGMETs reported for the Roma FIR (LIRR) :
 
Severe turbulence
LIRR SIGMET 5 VALID 111830/112230 LIIB
LIRR ROMA FIR SEV TURB FCST E OF LINE N4321 E00937 - N3607 E01725 FL220/390 STNR NC=
Severe turbulence
LIRR SIGMET 4 VALID 111430/111830 LIIB
LIRR ROMA FIR SEV TURB FCST E OF LINE N4135 E00932 - N3617 E01435 FL220/390 STNR NC=



MET'MAP, your aeronautical weather chart ! - Copyright ORBIFLY December 2007 - Disclaimer

ORBIFLY MET'MAP TEAM :

Programming & Development : Alexandra Zaïnal
Concept & Development : Baudouin d'Aumeries
Co-Development & Prog : Marc-Olivier Méhu
Technical & hardware support : Manuel Goepfert

Contact : metmap@orbifly.com




SOURCES & CREDITS :

   NOAA